sensor_id;sensor_type;location;lat;lon;timestamp;temperature;humidity
6756;DHT22;3415;51.148;7.014;2022-08-25T04:56:12;21.10;99.90
6756;DHT22;3415;51.148;7.014;2022-08-25T04:58:40;21.10;99.90
6756;DHT22;3415;51.148;7.014;2022-08-25T05:01:10;21.10;99.90
6756;DHT22;3415;51.148;7.014;2022-08-25T05:03:40;21.10;99.90
6756;DHT22;3415;51.148;7.014;2022-08-25T05:06:07;21.20;99.90
6756;DHT22;3415;51.148;7.014;2022-08-25T05:11:05;21.20;99.90
6756;DHT22;3415;51.148;7.014;2022-08-25T05:13:35;21.20;99.90
6756;DHT22;3415;51.148;7.014;2022-08-25T05:16:03;21.20;99.90
6756;DHT22;3415;51.148;7.014;2022-08-25T05:18:32;21.30;99.90
6756;DHT22;3415;51.148;7.014;2022-08-25T05:21:01;21.40;99.90
6756;DHT22;3415;51.148;7.014;2022-08-25T05:23:30;21.40;99.90
6756;DHT22;3415;51.148;7.014;2022-08-25T05:26:02;21.60;99.90
6756;DHT22;3415;51.148;7.014;2022-08-25T05:28:31;21.70;99.90
6756;DHT22;3415;51.148;7.014;2022-08-25T05:31:02;21.80;99.90
6756;DHT22;3415;51.148;7.014;2022-08-25T05:33:30;22.00;99.90
6756;DHT22;3415;51.148;7.014;2022-08-25T05:35:58;22.20;99.90
6756;DHT22;3415;51.148;7.014;2022-08-25T05:38:26;22.30;99.90
6756;DHT22;3415;51.148;7.014;2022-08-25T05:40:56;22.50;99.90
6756;DHT22;3415;51.148;7.014;2022-08-25T05:43:24;22.90;99.90
6756;DHT22;3415;51.148;7.014;2022-08-25T05:45:54;23.10;99.90
6756;DHT22;3415;51.148;7.014;2022-08-25T05:48:23;23.50;99.90
6756;DHT22;3415;51.148;7.014;2022-08-25T05:53:18;24.20;99.90
6756;DHT22;3415;51.148;7.014;2022-08-25T05:58:14;24.90;99.90
6756;DHT22;3415;51.148;7.014;2022-08-25T06:00:41;25.30;99.90
6756;DHT22;3415;51.148;7.014;2022-08-25T06:03:09;25.60;99.90
6756;DHT22;3415;51.148;7.014;2022-08-25T06:05:36;25.60;99.90
6756;DHT22;3415;51.148;7.014;2022-08-25T06:08:03;26.30;99.90
6756;DHT22;3415;51.148;7.014;2022-08-25T06:10:30;26.20;99.90
6756;DHT22;3415;51.148;7.014;2022-08-25T06:12:57;26.50;99.90
6756;DHT22;3415;51.148;7.014;2022-08-25T06:15:25;26.60;99.90
6756;DHT22;3415;51.148;7.014;2022-08-25T06:17:53;26.90;99.90
6756;DHT22;3415;51.148;7.014;2022-08-25T06:20:26;27.10;99.90
6756;DHT22;3415;51.148;7.014;2022-08-25T06:22:55;26.70;99.90
6756;DHT22;3415;51.148;7.014;2022-08-25T06:25:24;27.00;99.90
6756;DHT22;3415;51.148;7.014;2022-08-25T06:27:52;27.70;99.90
6756;DHT22;3415;51.148;7.014;2022-08-25T06:30:21;28.20;99.90
6756;DHT22;3415;51.148;7.014;2022-08-25T06:35:18;28.60;99.90
6756;DHT22;3415;51.148;7.014;2022-08-25T06:37:47;29.00;99.90
6756;DHT22;3415;51.148;7.014;2022-08-25T06:40:14;29.20;99.90
6756;DHT22;3415;51.148;7.014;2022-08-25T06:42:42;29.30;99.90
6756;DHT22;3415;51.148;7.014;2022-08-25T06:45:12;29.20;99.90
6756;DHT22;3415;51.148;7.014;2022-08-25T06:50:08;28.50;99.90
6756;DHT22;3415;51.148;7.014;2022-08-25T06:52:35;29.00;99.90
6756;DHT22;3415;51.148;7.014;2022-08-25T06:55:04;29.70;99.90
6756;DHT22;3415;51.148;7.014;2022-08-25T06:57:32;29.70;99.90
6756;DHT22;3415;51.148;7.014;2022-08-25T07:00:00;29.40;99.90
6756;DHT22;3415;51.148;7.014;2022-08-25T07:02:27;29.80;99.90
6756;DHT22;3415;51.148;7.014;2022-08-25T07:04:54;29.90;99.90
6756;DHT22;3415;51.148;7.014;2022-08-25T07:07:21;31.40;99.90
6756;DHT22;3415;51.148;7.014;2022-08-25T07:09:48;31.10;99.90
6756;DHT22;3415;51.148;7.014;2022-08-25T07:12:17;30.50;99.90
6756;DHT22;3415;51.148;7.014;2022-08-25T07:14:44;30.60;99.90
6756;DHT22;3415;51.148;7.014;2022-08-25T07:17:11;30.90;99.90
6756;DHT22;3415;51.148;7.014;2022-08-25T07:19:38;30.50;99.90
6756;DHT22;3415;51.148;7.014;2022-08-25T07:22:05;31.00;99.90
6756;DHT22;3415;51.148;7.014;2022-08-25T07:24:32;30.40;99.90
6756;DHT22;3415;51.148;7.014;2022-08-25T07:26:59;30.70;99.90
6756;DHT22;3415;51.148;7.014;2022-08-25T07:29:28;31.30;99.90
6756;DHT22;3415;51.148;7.014;2022-08-25T07:31:58;32.30;99.90
6756;DHT22;3415;51.148;7.014;2022-08-25T07:34:25;32.00;99.90
6756;DHT22;3415;51.148;7.014;2022-08-25T07:37:10;32.10;99.90
6756;DHT22;3415;51.148;7.014;2022-08-25T07:39:37;32.30;99.90
6756;DHT22;3415;51.148;7.014;2022-08-25T07:42:05;32.30;99.90
6756;DHT22;3415;51.148;7.014;2022-08-25T07:44:33;32.10;99.90
6756;DHT22;3415;51.148;7.014;2022-08-25T07:49:28;33.40;99.90
6756;DHT22;3415;51.148;7.014;2022-08-25T07:51:55;33.30;99.90
6756;DHT22;3415;51.148;7.014;2022-08-25T07:54:22;32.50;99.90
6756;DHT22;3415;51.148;7.014;2022-08-25T07:56:51;32.30;99.90
6756;DHT22;3415;51.148;7.014;2022-08-25T07:59:18;32.30;99.90
6756;DHT22;3415;51.148;7.014;2022-08-25T08:01:47;32.50;99.90
6756;DHT22;3415;51.148;7.014;2022-08-25T08:04:14;32.50;99.90
6756;DHT22;3415;51.148;7.014;2022-08-25T08:06:41;32.80;99.90
6756;DHT22;3415;51.148;7.014;2022-08-25T08:09:08;33.80;99.90
6756;DHT22;3415;51.148;7.014;2022-08-25T08:11:35;34.40;99.90
6756;DHT22;3415;51.148;7.014;2022-08-25T08:14:05;34.60;99.90
6756;DHT22;3415;51.148;7.014;2022-08-25T08:16:33;34.50;99.90
6756;DHT22;3415;51.148;7.014;2022-08-25T08:19:02;34.30;99.90
6756;DHT22;3415;51.148;7.014;2022-08-25T08:21:31;34.40;99.90
6756;DHT22;3415;51.148;7.014;2022-08-25T08:24:00;34.20;99.90
6756;DHT22;3415;51.148;7.014;2022-08-25T08:26:27;34.40;99.90
6756;DHT22;3415;51.148;7.014;2022-08-25T08:28:54;34.40;99.90
6756;DHT22;3415;51.148;7.014;2022-08-25T08:31:24;35.50;99.90
6756;DHT22;3415;51.148;7.014;2022-08-25T08:33:54;36.20;99.90
6756;DHT22;3415;51.148;7.014;2022-08-25T08:36:23;36.10;99.90
6756;DHT22;3415;51.148;7.014;2022-08-25T08:38:51;36.80;99.90
6756;DHT22;3415;51.148;7.014;2022-08-25T08:41:43;37.40;99.90
6756;DHT22;3415;51.148;7.014;2022-08-25T08:44:39;36.60;99.90
6756;DHT22;3415;51.148;7.014;2022-08-25T08:47:13;36.70;99.90
6756;DHT22;3415;51.148;7.014;2022-08-25T08:49:51;36.20;99.90
6756;DHT22;3415;51.148;7.014;2022-08-25T08:52:39;36.00;99.90
6756;DHT22;3415;51.148;7.014;2022-08-25T08:55:14;35.50;99.90
6756;DHT22;3415;51.148;7.014;2022-08-25T08:57:51;35.60;99.90
6756;DHT22;3415;51.148;7.014;2022-08-25T09:00:20;36.60;99.90
6756;DHT22;3415;51.148;7.014;2022-08-25T09:02:51;38.00;99.90
6756;DHT22;3415;51.148;7.014;2022-08-25T09:05:26;38.50;99.90
6756;DHT22;3415;51.148;7.014;2022-08-25T09:07:57;39.20;99.90
6756;DHT22;3415;51.148;7.014;2022-08-25T09:10:37;39.50;99.90
6756;DHT22;3415;51.148;7.014;2022-08-25T09:13:13;39.70;99.90
6756;DHT22;3415;51.148;7.014;2022-08-25T09:15:50;41.00;99.90
6756;DHT22;3415;51.148;7.014;2022-08-25T09:18:43;40.00;99.90
6756;DHT22;3415;51.148;7.014;2022-08-25T09:21:22;39.20;99.90
6756;DHT22;3415;51.148;7.014;2022-08-25T09:24:07;38.80;99.90
6756;DHT22;3415;51.148;7.014;2022-08-25T09:26:46;37.70;99.90
6756;DHT22;3415;51.148;7.014;2022-08-25T09:29:21;37.90;99.90
6756;DHT22;3415;51.148;7.014;2022-08-25T09:31:51;38.60;99.90
6756;DHT22;3415;51.148;7.014;2022-08-25T09:34:22;39.90;99.90
6756;DHT22;3415;51.148;7.014;2022-08-25T09:36:51;39.80;99.90
6756;DHT22;3415;51.148;7.014;2022-08-25T09:39:20;39.50;99.90
6756;DHT22;3415;51.148;7.014;2022-08-25T09:41:50;39.40;99.90
6756;DHT22;3415;51.148;7.014;2022-08-25T09:44:21;40.10;99.90
6756;DHT22;3415;51.148;7.014;2022-08-25T09:47:01;41.00;99.90
6756;DHT22;3415;51.148;7.014;2022-08-25T09:49:33;39.70;99.90
6756;DHT22;3415;51.148;7.014;2022-08-25T09:55:26;38.90;99.90
6756;DHT22;3415;51.148;7.014;2022-08-25T09:57:57;38.60;99.90
6756;DHT22;3415;51.148;7.014;2022-08-25T10:00:26;38.90;99.90
6756;DHT22;3415;51.148;7.014;2022-08-25T10:03:07;39.00;99.90
6756;DHT22;3415;51.148;7.014;2022-08-25T10:05:48;39.50;99.90
6756;DHT22;3415;51.148;7.014;2022-08-25T10:08:29;38.70;99.90
6756;DHT22;3415;51.148;7.014;2022-08-25T10:11:01;39.10;99.90
6756;DHT22;3415;51.148;7.014;2022-08-25T10:13:41;40.60;99.90
6756;DHT22;3415;51.148;7.014;2022-08-25T10:16:21;40.70;99.90
6756;DHT22;3415;51.148;7.014;2022-08-25T10:19:03;41.20;99.90
6756;DHT22;3415;51.148;7.014;2022-08-25T10:21:33;41.20;99.90
6756;DHT22;3415;51.148;7.014;2022-08-25T10:26:40;40.20;99.90
6756;DHT22;3415;51.148;7.014;2022-08-25T10:29:25;41.50;99.90
6756;DHT22;3415;51.148;7.014;2022-08-25T10:32:10;40.30;99.90
6756;DHT22;3415;51.148;7.014;2022-08-25T10:34:47;40.50;99.90
6756;DHT22;3415;51.148;7.014;2022-08-25T10:37:24;40.70;99.90
6756;DHT22;3415;51.148;7.014;2022-08-25T10:40:02;41.00;99.90
6756;DHT22;3415;51.148;7.014;2022-08-25T10:42:40;42.20;99.90
6756;DHT22;3415;51.148;7.014;2022-08-25T10:45:22;41.50;99.90
6756;DHT22;3415;51.148;7.014;2022-08-25T10:48:33;40.50;99.90
6756;DHT22;3415;51.148;7.014;2022-08-25T10:51:32;40.80;99.90
6756;DHT22;3415;51.148;7.014;2022-08-25T10:54:09;39.90;99.90
6756;DHT22;3415;51.148;7.014;2022-08-25T10:56:49;39.60;99.90
6756;DHT22;3415;51.148;7.014;2022-08-25T10:59:50;40.00;99.90
6756;DHT22;3415;51.148;7.014;2022-08-25T11:02:55;40.90;99.90
6756;DHT22;3415;51.148;7.014;2022-08-25T11:05:32;42.10;99.90
6756;DHT22;3415;51.148;7.014;2022-08-25T11:08:09;42.10;99.90
6756;DHT22;3415;51.148;7.014;2022-08-25T11:10:43;40.70;99.90
6756;DHT22;3415;51.148;7.014;2022-08-25T11:13:17;41.40;99.90
6756;DHT22;3415;51.148;7.014;2022-08-25T11:15:53;41.90;99.90
6756;DHT22;3415;51.148;7.014;2022-08-25T11:18:22;41.80;99.90
6756;DHT22;3415;51.148;7.014;2022-08-25T11:20:58;42.00;99.90
6756;DHT22;3415;51.148;7.014;2022-08-25T11:23:34;43.40;99.90
6756;DHT22;3415;51.148;7.014;2022-08-25T11:26:07;42.90;99.90
6756;DHT22;3415;51.148;7.014;2022-08-25T11:28:47;42.30;99.90
6756;DHT22;3415;51.148;7.014;2022-08-25T11:31:19;42.40;99.90
6756;DHT22;3415;51.148;7.014;2022-08-25T11:33:48;42.50;99.90
6756;DHT22;3415;51.148;7.014;2022-08-25T11:36:27;44.90;99.90
6756;DHT22;3415;51.148;7.014;2022-08-25T11:39:08;44.20;99.90
6756;DHT22;3415;51.148;7.014;2022-08-25T11:41:47;42.80;99.90
6756;DHT22;3415;51.148;7.014;2022-08-25T11:44:45;42.80;99.90
6756;DHT22;3415;51.148;7.014;2022-08-25T11:47:45;42.50;99.90
6756;DHT22;3415;51.148;7.014;2022-08-25T11:50:27;42.40;99.90
6756;DHT22;3415;51.148;7.014;2022-08-25T11:52:58;42.40;99.90
6756;DHT22;3415;51.148;7.014;2022-08-25T11:55:44;43.30;99.90
6756;DHT22;3415;51.148;7.014;2022-08-25T11:58:33;43.70;99.90
6756;DHT22;3415;51.148;7.014;2022-08-25T12:01:08;42.90;99.90
6756;DHT22;3415;51.148;7.014;2022-08-25T12:04:13;43.50;99.90
6756;DHT22;3415;51.148;7.014;2022-08-25T12:10:07;44.20;99.90
6756;DHT22;3415;51.148;7.014;2022-08-25T12:13:23;41.10;99.90
6756;DHT22;3415;51.148;7.014;2022-08-25T12:16:05;38.10;99.90
6756;DHT22;3415;51.148;7.014;2022-08-25T12:18:42;37.90;99.90
6756;DHT22;3415;51.148;7.014;2022-08-25T12:21:15;35.90;99.90
6756;DHT22;3415;51.148;7.014;2022-08-25T12:24:11;35.00;99.90
6756;DHT22;3415;51.148;7.014;2022-08-25T12:26:47;34.40;99.90
6756;DHT22;3415;51.148;7.014;2022-08-25T12:29:30;34.10;99.90
6756;DHT22;3415;51.148;7.014;2022-08-25T12:32:29;33.90;99.90
6756;DHT22;3415;51.148;7.014;2022-08-25T12:35:27;33.80;99.90
6756;DHT22;3415;51.148;7.014;2022-08-25T12:38:00;33.40;99.90
6756;DHT22;3415;51.148;7.014;2022-08-25T12:40:33;33.40;99.90
6756;DHT22;3415;51.148;7.014;2022-08-25T12:43:07;33.40;99.90
6756;DHT22;3415;51.148;7.014;2022-08-25T12:45:45;33.20;99.90
6756;DHT22;3415;51.148;7.014;2022-08-25T12:51:26;32.90;99.90
6756;DHT22;3415;51.148;7.014;2022-08-25T12:54:00;32.80;99.90
6756;DHT22;3415;51.148;7.014;2022-08-25T12:56:41;32.80;99.90
6756;DHT22;3415;51.148;7.014;2022-08-25T12:59:14;33.00;99.90
6756;DHT22;3415;51.148;7.014;2022-08-25T13:05:10;33.40;99.90
6756;DHT22;3415;51.148;7.014;2022-08-25T13:07:57;33.40;99.90
6756;DHT22;3415;51.148;7.014;2022-08-25T13:10:45;33.50;99.90
6756;DHT22;3415;51.148;7.014;2022-08-25T13:13:23;33.00;99.90
6756;DHT22;3415;51.148;7.014;2022-08-25T13:16:00;32.80;99.90
6756;DHT22;3415;51.148;7.014;2022-08-25T13:18:30;32.90;99.90
6756;DHT22;3415;51.148;7.014;2022-08-25T13:21:05;32.80;99.90
6756;DHT22;3415;51.148;7.014;2022-08-25T13:23:37;33.00;99.90
6756;DHT22;3415;51.148;7.014;2022-08-25T13:26:09;32.80;99.90
6756;DHT22;3415;51.148;7.014;2022-08-25T13:28:39;32.80;99.90
6756;DHT22;3415;51.148;7.014;2022-08-25T13:31:08;32.80;99.90
6756;DHT22;3415;51.148;7.014;2022-08-25T13:33:49;32.90;99.90
6756;DHT22;3415;51.148;7.014;2022-08-25T13:36:17;33.00;99.90
6756;DHT22;3415;51.148;7.014;2022-08-25T13:39:11;33.00;99.90
6756;DHT22;3415;51.148;7.014;2022-08-25T13:41:45;32.80;99.90
6756;DHT22;3415;51.148;7.014;2022-08-25T13:44:14;32.70;99.90
6756;DHT22;3415;51.148;7.014;2022-08-25T13:46:42;32.50;99.90
6756;DHT22;3415;51.148;7.014;2022-08-25T13:49:10;32.50;99.90
6756;DHT22;3415;51.148;7.014;2022-08-25T13:51:48;32.30;99.90
6756;DHT22;3415;51.148;7.014;2022-08-25T13:54:24;32.40;99.90
6756;DHT22;3415;51.148;7.014;2022-08-25T13:57:04;32.40;99.90
6756;DHT22;3415;51.148;7.014;2022-08-25T13:59:36;32.50;99.90
6756;DHT22;3415;51.148;7.014;2022-08-25T14:02:06;32.80;99.90
6756;DHT22;3415;51.148;7.014;2022-08-25T14:04:45;32.90;99.90
6756;DHT22;3415;51.148;7.014;2022-08-25T14:07:26;32.90;99.90
6756;DHT22;3415;51.148;7.014;2022-08-25T14:09:57;33.00;99.90
6756;DHT22;3415;51.148;7.014;2022-08-25T14:12:35;33.00;99.90
6756;DHT22;3415;51.148;7.014;2022-08-25T14:15:09;33.00;99.90
6756;DHT22;3415;51.148;7.014;2022-08-25T14:17:40;33.00;99.90
6756;DHT22;3415;51.148;7.014;2022-08-25T14:20:18;33.10;99.90
6756;DHT22;3415;51.148;7.014;2022-08-25T14:22:53;33.10;99.90
6756;DHT22;3415;51.148;7.014;2022-08-25T14:25:23;33.20;99.90
6756;DHT22;3415;51.148;7.014;2022-08-25T14:27:55;33.40;99.90
6756;DHT22;3415;51.148;7.014;2022-08-25T14:30:23;33.20;99.90
6756;DHT22;3415;51.148;7.014;2022-08-25T14:35:18;33.20;99.90
6756;DHT22;3415;51.148;7.014;2022-08-25T14:37:45;33.10;99.90
6756;DHT22;3415;51.148;7.014;2022-08-25T14:40:13;33.20;99.90
6756;DHT22;3415;51.148;7.014;2022-08-25T14:42:44;32.70;99.90
6756;DHT22;3415;51.148;7.014;2022-08-25T14:45:13;32.70;99.90
6756;DHT22;3415;51.148;7.014;2022-08-25T14:47:41;33.00;99.90
6756;DHT22;3415;51.148;7.014;2022-08-25T14:50:09;33.10;99.90
6756;DHT22;3415;51.148;7.014;2022-08-25T14:52:37;33.10;99.90
6756;DHT22;3415;51.148;7.014;2022-08-25T14:55:05;33.00;99.90
6756;DHT22;3415;51.148;7.014;2022-08-25T14:57:33;33.00;99.90
6756;DHT22;3415;51.148;7.014;2022-08-25T15:00:00;32.90;99.90
6756;DHT22;3415;51.148;7.014;2022-08-25T15:02:29;32.90;99.90
6756;DHT22;3415;51.148;7.014;2022-08-25T15:04:59;33.10;99.90
6756;DHT22;3415;51.148;7.014;2022-08-25T15:07:31;33.10;99.90
6756;DHT22;3415;51.148;7.014;2022-08-25T15:10:16;33.00;99.90
6756;DHT22;3415;51.148;7.014;2022-08-25T15:12:43;32.90;99.90
6756;DHT22;3415;51.148;7.014;2022-08-25T15:17:40;32.70;99.90
6756;DHT22;3415;51.148;7.014;2022-08-25T15:20:10;32.70;99.90
6756;DHT22;3415;51.148;7.014;2022-08-25T15:22:37;32.70;99.90
6756;DHT22;3415;51.148;7.014;2022-08-25T15:25:05;32.70;99.90
6756;DHT22;3415;51.148;7.014;2022-08-25T15:27:33;32.60;99.90
6756;DHT22;3415;51.148;7.014;2022-08-25T15:30:00;32.60;99.90
6756;DHT22;3415;51.148;7.014;2022-08-25T15:32:27;32.50;99.90
6756;DHT22;3415;51.148;7.014;2022-08-25T15:34:56;32.40;99.90
6756;DHT22;3415;51.148;7.014;2022-08-25T15:39:51;32.20;99.90
6756;DHT22;3415;51.148;7.014;2022-08-25T15:42:19;32.10;99.90
6756;DHT22;3415;51.148;7.014;2022-08-25T15:44:46;31.90;99.90
6756;DHT22;3415;51.148;7.014;2022-08-25T15:49:40;31.50;99.90
6756;DHT22;3415;51.148;7.014;2022-08-25T15:52:09;31.40;99.90
6756;DHT22;3415;51.148;7.014;2022-08-25T15:57:05;31.40;99.90
6756;DHT22;3415;51.148;7.014;2022-08-25T15:59:32;31.40;99.90
6756;DHT22;3415;51.148;7.014;2022-08-25T16:04:27;31.10;99.90
6756;DHT22;3415;51.148;7.014;2022-08-25T16:09:23;30.80;99.90
6756;DHT22;3415;51.148;7.014;2022-08-25T16:14:18;30.50;99.90
6756;DHT22;3415;51.148;7.014;2022-08-25T16:16:45;30.30;99.90
6756;DHT22;3415;51.148;7.014;2022-08-25T16:19:12;30.20;99.90
6756;DHT22;3415;51.148;7.014;2022-08-25T16:21:40;30.10;99.90
6756;DHT22;3415;51.148;7.014;2022-08-25T16:24:07;30.00;99.90
6756;DHT22;3415;51.148;7.014;2022-08-25T16:26:36;29.80;99.90
6756;DHT22;3415;51.148;7.014;2022-08-25T16:29:07;29.80;99.90
6756;DHT22;3415;51.148;7.014;2022-08-25T16:31:34;29.70;99.90
6756;DHT22;3415;51.148;7.014;2022-08-25T16:34:01;29.50;99.90
6756;DHT22;3415;51.148;7.014;2022-08-25T16:38:56;29.20;99.90
6756;DHT22;3415;51.148;7.014;2022-08-25T16:41:27;29.10;99.90
6756;DHT22;3415;51.148;7.014;2022-08-25T16:44:00;29.00;99.90
6756;DHT22;3415;51.148;7.014;2022-08-25T16:46:27;28.90;99.90
6756;DHT22;3415;51.148;7.014;2022-08-25T16:48:59;28.80;99.90
6756;DHT22;3415;51.148;7.014;2022-08-25T16:51:27;28.70;99.90
6756;DHT22;3415;51.148;7.014;2022-08-25T16:53:54;28.80;99.90
6756;DHT22;3415;51.148;7.014;2022-08-25T16:56:39;29.00;99.90
6756;DHT22;3415;51.148;7.014;2022-08-25T16:59:10;29.30;99.90
6756;DHT22;3415;51.148;7.014;2022-08-25T17:01:39;29.40;99.90
6756;DHT22;3415;51.148;7.014;2022-08-25T17:04:08;29.40;99.90
6756;DHT22;3415;51.148;7.014;2022-08-25T17:06:38;29.40;99.90
6756;DHT22;3415;51.148;7.014;2022-08-25T17:09:07;29.40;99.90
6756;DHT22;3415;51.148;7.014;2022-08-25T17:11:39;29.50;99.90
6756;DHT22;3415;51.148;7.014;2022-08-25T17:14:13;29.50;99.90
6756;DHT22;3415;51.148;7.014;2022-08-25T17:16:41;29.40;99.90
6756;DHT22;3415;51.148;7.014;2022-08-25T17:19:10;29.40;99.90
6756;DHT22;3415;51.148;7.014;2022-08-25T17:21:42;29.40;99.90
6756;DHT22;3415;51.148;7.014;2022-08-25T17:24:11;29.30;99.90
6756;DHT22;3415;51.148;7.014;2022-08-25T17:26:40;29.10;99.90
6756;DHT22;3415;51.148;7.014;2022-08-25T17:29:08;29.10;99.90
6756;DHT22;3415;51.148;7.014;2022-08-25T17:31:37;28.90;99.90
6756;DHT22;3415;51.148;7.014;2022-08-25T17:34:09;28.80;99.90
6756;DHT22;3415;51.148;7.014;2022-08-25T17:36:38;28.60;99.90
6756;DHT22;3415;51.148;7.014;2022-08-25T17:39:07;28.50;99.90
6756;DHT22;3415;51.148;7.014;2022-08-25T17:41:35;28.40;99.90
6756;DHT22;3415;51.148;7.014;2022-08-25T17:44:02;28.30;99.90
6756;DHT22;3415;51.148;7.014;2022-08-25T17:46:30;28.30;99.90
6756;DHT22;3415;51.148;7.014;2022-08-25T17:48:58;28.30;99.90
6756;DHT22;3415;51.148;7.014;2022-08-25T17:51:25;28.30;99.90
6756;DHT22;3415;51.148;7.014;2022-08-25T17:53:53;28.20;99.90
6756;DHT22;3415;51.148;7.014;2022-08-25T17:56:22;28.20;99.90
6756;DHT22;3415;51.148;7.014;2022-08-25T17:58:51;28.10;99.90
6756;DHT22;3415;51.148;7.014;2022-08-25T18:01:21;28.00;99.90
6756;DHT22;3415;51.148;7.014;2022-08-25T18:03:52;27.90;99.90
6756;DHT22;3415;51.148;7.014;2022-08-25T18:06:22;27.80;99.90
6756;DHT22;3415;51.148;7.014;2022-08-25T18:08:50;27.70;99.90
6756;DHT22;3415;51.148;7.014;2022-08-25T18:11:18;27.60;99.90
6756;DHT22;3415;51.148;7.014;2022-08-25T18:13:48;27.50;99.90
6756;DHT22;3415;51.148;7.014;2022-08-25T18:16:17;27.40;99.90
6756;DHT22;3415;51.148;7.014;2022-08-25T18:18:44;27.40;99.90
6756;DHT22;3415;51.148;7.014;2022-08-25T18:21:14;27.40;99.90
6756;DHT22;3415;51.148;7.014;2022-08-25T18:23:44;27.40;99.90
6756;DHT22;3415;51.148;7.014;2022-08-25T18:26:13;27.40;99.90
6756;DHT22;3415;51.148;7.014;2022-08-25T18:28:41;27.40;99.90
6756;DHT22;3415;51.148;7.014;2022-08-25T18:31:08;27.30;99.90
6756;DHT22;3415;51.148;7.014;2022-08-25T18:33:36;27.10;99.90
6756;DHT22;3415;51.148;7.014;2022-08-25T18:36:06;27.10;99.90
6756;DHT22;3415;51.148;7.014;2022-08-25T18:38:33;26.90;99.90
6756;DHT22;3415;51.148;7.014;2022-08-25T18:41:19;26.80;99.90
6756;DHT22;3415;51.148;7.014;2022-08-25T18:43:46;26.70;99.90
6756;DHT22;3415;51.148;7.014;2022-08-25T18:46:13;26.60;99.90
6756;DHT22;3415;51.148;7.014;2022-08-25T18:48:40;26.60;99.90
6756;DHT22;3415;51.148;7.014;2022-08-25T18:51:08;26.60;99.90
6756;DHT22;3415;51.148;7.014;2022-08-25T18:58:32;26.30;99.90
6756;DHT22;3415;51.148;7.014;2022-08-25T19:03:27;26.30;99.90
6756;DHT22;3415;51.148;7.014;2022-08-25T19:05:55;26.30;99.90
6756;DHT22;3415;51.148;7.014;2022-08-25T19:08:22;26.30;99.90
6756;DHT22;3415;51.148;7.014;2022-08-25T19:10:51;26.40;99.90
6756;DHT22;3415;51.148;7.014;2022-08-25T19:13:18;26.40;99.90
6756;DHT22;3415;51.148;7.014;2022-08-25T19:15:47;26.30;99.90
6756;DHT22;3415;51.148;7.014;2022-08-25T19:18:14;26.40;99.90
6756;DHT22;3415;51.148;7.014;2022-08-25T19:20:41;26.40;99.90
6756;DHT22;3415;51.148;7.014;2022-08-25T19:23:09;26.40;99.90
6756;DHT22;3415;51.148;7.014;2022-08-25T19:25:38;26.40;99.90
6756;DHT22;3415;51.148;7.014;2022-08-25T19:28:08;26.30;99.90
